Weather at La Guardia Airport

Public forecast

Using degrees Fahrenheit for public forecast. Weather courtesy of forecast.io.

Current aviation weather report (METAR) for La Guardia Airport

Retrieved 2021/07/28 12:51 UTC (12 minutes ago):

KLGA 281251Z 01005KT 10SM FEW032 FEW130 FEW250 24/17 A2998 RMK AO2 SLP153 T02390172

Aviation forecast (TAF) for La Guardia Airport

Retrieved 2021/07/28 12:42 UTC (21 minutes ago):

TAF KLGA 281140Z 2812/2918 01010KT P6SM SCT025 SCT120 TEMPO 2813/2815 BKN025 FM281600 02010KT P6SM SCT050 FM282000 06010KT P6SM SCT050 FM282300 12008KT P6SM SCT050 FM290500 15008KT P6SM SCT015 SCT050 FM290800 15004KT 6SM BR SCT007 BKN015 FM291200 15007KT 6SM BR VCSH BKN035